createdAt,value
2019-04-21T00:02:18.767Z,75.20
2019-04-21T00:07:37.774Z,75.50
2019-04-21T00:12:40.658Z,74.60
2019-04-21T00:17:34.727Z,75.70
2019-04-21T00:22:50.961Z,75.00
2019-04-21T00:28:03.173Z,76.90
2019-04-21T00:32:59.965Z,76.80
2019-04-21T00:38:21.362Z,77.20
2019-04-21T00:43:24.148Z,77.50
2019-04-21T00:48:36.363Z,77.80
2019-04-21T00:53:45.362Z,77.50
2019-04-21T00:58:46.272Z,78.20
2019-04-21T01:03:57.867Z,77.50
2019-04-21T01:08:59.006Z,78.40
2019-04-21T01:14:12.108Z,77.30
2019-04-21T01:19:14.325Z,77.80
2019-04-21T01:24:07.726Z,79.00
2019-04-21T01:29:20.867Z,79.20
2019-04-21T01:34:37.342Z,81.00
2019-04-21T01:39:41.170Z,80.20
2019-04-21T01:44:46.175Z,81.00
2019-04-21T01:49:43.057Z,81.20
2019-04-21T01:55:12.646Z,81.00
2019-04-21T02:00:12.243Z,80.50
2019-04-21T02:05:32.688Z,80.90
2019-04-21T02:10:40.054Z,81.00
2019-04-21T02:15:45.226Z,82.50
2019-04-21T02:20:40.167Z,82.20
2019-04-21T02:26:01.889Z,82.80
2019-04-21T02:36:32.795Z,83.50
2019-04-21T02:41:23.095Z,83.00
2019-04-21T02:51:44.297Z,83.90
2019-04-21T02:56:48.173Z,84.10
2019-04-21T03:02:11.100Z,84.20
2019-04-21T03:12:17.928Z,83.70
2019-04-21T03:22:31.619Z,85.00
2019-04-21T03:27:51.216Z,86.10
2019-04-21T03:33:23.504Z,85.60
2019-04-21T03:38:00.178Z,86.40
2019-04-21T03:43:04.926Z,86.30
2019-04-21T03:48:11.513Z,86.60
2019-04-21T03:53:22.680Z,86.90
2019-04-21T03:58:35.131Z,87.10
2019-04-21T04:09:03.144Z,87.50
2019-04-21T04:14:04.027Z,87.10
2019-04-21T04:19:01.212Z,87.20
2019-04-21T04:24:07.191Z,87.30
2019-04-21T04:34:24.829Z,88.20
2019-04-21T04:39:42.787Z,88.60
2019-04-21T04:49:48.045Z,88.10
2019-04-21T04:54:55.808Z,86.80
2019-04-21T05:00:07.384Z,86.70
2019-04-21T05:05:07.089Z,86.20
2019-04-21T05:10:07.395Z,86.20
2019-04-21T05:20:26.145Z,87.90
2019-04-21T05:25:13.478Z,87.00
2019-04-21T05:30:33.852Z,85.20
2019-04-21T05:35:47.876Z,83.60
2019-04-21T05:40:45.375Z,82.70
2019-04-21T05:46:05.432Z,81.20
2019-04-21T05:51:03.638Z,80.20
2019-04-21T05:56:17.325Z,78.40
2019-04-21T06:01:31.514Z,73.50
2019-04-21T06:11:36.778Z,73.00
2019-04-21T06:21:44.901Z,70.50
2019-04-21T06:32:29.587Z,66.20
2019-04-21T06:37:22.474Z,65.80
2019-04-21T06:42:13.260Z,61.20
2019-04-21T06:47:32.544Z,59.50
2019-04-21T07:02:52.132Z,55.00
2019-04-21T07:08:06.479Z,52.80
2019-04-21T07:12:56.124Z,50.40
2019-04-21T07:18:09.308Z,50.00
2019-04-21T07:23:10.496Z,48.00
2019-04-21T07:28:15.514Z,47.70
2019-04-21T07:33:41.710Z,45.10
2019-04-21T07:38:27.420Z,45.70
2019-04-21T07:43:24.656Z,43.30
2019-04-21T07:48:46.115Z,41.20
2019-04-21T07:53:59.904Z,41.40
2019-04-21T07:59:04.063Z,41.70
2019-04-21T08:04:16.512Z,40.90
2019-04-21T08:09:08.869Z,39.30
2019-04-21T08:14:19.205Z,38.50
2019-04-21T08:19:25.201Z,38.70
2019-04-21T08:24:28.525Z,38.50
2019-04-21T08:29:39.199Z,37.50
2019-04-21T08:34:43.249Z,35.70
2019-04-21T08:39:57.055Z,35.60
2019-04-21T08:44:55.807Z,34.80
2019-04-21T08:50:00.495Z,33.30
2019-04-21T08:55:25.329Z,33.60
2019-04-21T09:00:45.182Z,33.50
2019-04-21T09:05:45.560Z,34.00
2019-04-21T09:10:55.802Z,34.70
2019-04-21T09:15:52.396Z,34.30
2019-04-21T09:21:10.617Z,33.30
2019-04-21T09:26:05.191Z,33.60
2019-04-21T09:31:00.903Z,33.30
2019-04-21T09:36:07.529Z,31.10
2019-04-21T09:41:15.914Z,31.80
2019-04-21T09:46:16.947Z,31.70
2019-04-21T09:51:21.782Z,30.20
2019-04-21T09:56:35.892Z,31.10
2019-04-21T10:01:50.396Z,29.70
2019-04-21T10:06:39.661Z,30.50
2019-04-21T10:11:45.846Z,30.10
2019-04-21T10:16:53.927Z,30.30
2019-04-21T10:22:01.195Z,30.00
2019-04-21T10:27:07.293Z,30.50
2019-04-21T10:32:13.403Z,30.20
2019-04-21T10:37:18.827Z,30.40
2019-04-21T10:42:23.814Z,30.70
2019-04-21T10:47:29.335Z,30.40
2019-04-21T10:52:53.146Z,30.20
2019-04-21T10:58:18.335Z,30.00
2019-04-21T11:03:40.952Z,30.70
2019-04-21T11:08:50.320Z,30.00
2019-04-21T11:13:52.629Z,29.20
2019-04-21T11:18:57.958Z,28.90
2019-04-21T11:24:03.965Z,29.40
2019-04-21T11:29:08.817Z,29.50
2019-04-21T11:34:13.641Z,28.80
2019-04-21T11:39:31.560Z,28.60
2019-04-21T11:44:27.020Z,28.20
2019-04-21T11:49:32.576Z,28.10
2019-04-21T11:54:37.500Z,27.00
2019-04-21T11:59:43.776Z,26.50
2019-04-21T12:04:49.524Z,25.50
2019-04-21T12:09:55.406Z,25.30
2019-04-21T12:15:00.360Z,25.80
2019-04-21T12:20:08.753Z,25.80
2019-04-21T12:25:15.589Z,25.60
2019-04-21T12:30:21.763Z,25.50
2019-04-21T12:35:28.008Z,25.40
2019-04-21T12:40:32.996Z,24.80
2019-04-21T12:45:37.915Z,26.00
2019-04-21T12:50:43.726Z,26.20
2019-04-21T12:55:49.880Z,26.90
2019-04-21T13:00:54.974Z,27.20
2019-04-21T13:05:59.804Z,27.70
2019-04-21T13:11:04.642Z,27.10
2019-04-21T13:16:09.719Z,27.70
2019-04-21T13:21:14.596Z,27.00
2019-04-21T13:26:30.589Z,27.00
2019-04-21T13:31:26.608Z,27.50
2019-04-21T13:36:31.760Z,27.90
2019-04-21T13:41:53.266Z,27.20
2019-04-21T13:46:45.034Z,27.10
2019-04-21T13:51:50.165Z,27.60
2019-04-21T13:56:56.418Z,27.10
2019-04-21T14:02:02.693Z,26.30
2019-04-21T14:07:08.175Z,26.50
2019-04-21T14:12:13.741Z,27.20
2019-04-21T14:17:19.155Z,26.80
2019-04-21T14:22:26.399Z,26.00
2019-04-21T14:27:32.190Z,26.40
2019-04-21T14:32:37.990Z,26.30
2019-04-21T14:37:42.826Z,26.70
2019-04-21T14:42:47.868Z,27.00
2019-04-21T14:47:54.380Z,25.90
2019-04-21T14:53:13.740Z,26.50
2019-04-21T14:58:19.166Z,26.30
2019-04-21T15:03:25.679Z,26.50
2019-04-21T15:08:31.293Z,27.10
2019-04-21T15:13:37.629Z,27.20
2019-04-21T15:18:42.521Z,26.80
2019-04-21T15:23:48.455Z,26.70
2019-04-21T15:28:53.349Z,26.90
2019-04-21T15:33:59.094Z,26.40
2019-04-21T15:39:05.915Z,26.30
2019-04-21T15:44:12.393Z,26.40
2019-04-21T15:49:17.540Z,27.50
2019-04-21T15:54:22.690Z,29.60
2019-04-21T15:59:30.437Z,30.80
2019-04-21T16:04:36.806Z,31.40
2019-04-21T16:09:41.877Z,31.90
2019-04-21T16:14:46.965Z,32.70
2019-04-21T16:19:52.239Z,33.80
2019-04-21T16:24:58.964Z,34.40
2019-04-21T16:30:07.927Z,35.40
2019-04-21T16:35:14.948Z,35.90
2019-04-21T16:40:21.305Z,36.20
2019-04-21T16:45:26.248Z,36.70
2019-04-21T16:50:31.885Z,37.30
2019-04-21T16:55:39.283Z,37.80
2019-04-21T17:06:08.938Z,39.40
2019-04-21T17:11:19.546Z,39.60
2019-04-21T17:16:34.776Z,38.60
2019-04-21T17:16:48.251Z,39.80
2019-04-21T17:21:28.075Z,39.70
2019-04-21T17:26:37.200Z,40.80
2019-04-21T17:31:41.315Z,41.90
2019-04-21T17:36:47.256Z,42.20
2019-04-21T17:42:05.274Z,42.70
2019-04-21T17:47:04.872Z,42.70
2019-04-21T17:52:09.794Z,42.60
2019-04-21T17:57:36.853Z,42.20
2019-04-21T18:02:41.400Z,42.40
2019-04-21T18:07:43.598Z,42.70
2019-04-21T18:12:45.092Z,42.70
2019-04-21T18:17:40.488Z,42.70
2019-04-21T18:23:09.606Z,43.10
2019-04-21T18:28:10.350Z,44.00
2019-04-21T18:33:22.202Z,44.20
2019-04-21T18:38:56.964Z,44.30
2019-04-21T18:44:15.551Z,43.60
2019-04-21T18:49:06.251Z,43.60
2019-04-21T18:54:31.358Z,43.30
2019-04-21T18:59:20.177Z,43.40
2019-04-21T19:04:28.719Z,44.10
2019-04-21T19:14:53.340Z,45.70
2019-04-21T19:20:08.968Z,46.80
2019-04-21T19:25:08.473Z,48.00
2019-04-21T19:30:22.399Z,50.00
2019-04-21T19:35:05.502Z,50.70
2019-04-21T19:40:31.386Z,51.90
2019-04-21T19:45:32.162Z,53.30
2019-04-21T19:50:44.910Z,54.40
2019-04-21T19:55:30.274Z,55.80
2019-04-21T20:00:35.186Z,57.40
2019-04-21T20:05:47.628Z,58.30
2019-04-21T20:11:03.916Z,59.40
2019-04-21T20:16:18.093Z,60.70
2019-04-21T20:21:00.024Z,62.30
2019-04-21T20:26:08.562Z,64.40
2019-04-21T20:31:29.639Z,66.00
2019-04-21T20:36:41.573Z,68.00
2019-04-21T20:41:40.864Z,69.40
2019-04-21T20:46:45.891Z,70.70
2019-04-21T20:52:07.994Z,71.40
2019-04-21T20:57:07.467Z,72.40
2019-04-21T21:02:05.667Z,73.20
2019-04-21T21:07:30.680Z,73.80
2019-04-21T21:12:31.780Z,74.30
2019-04-21T21:17:44.240Z,74.10
2019-04-21T21:22:35.209Z,74.20
2019-04-21T21:27:36.747Z,74.40
2019-04-21T21:32:52.318Z,74.90
2019-04-21T21:37:55.321Z,75.30
2019-04-21T21:42:45.694Z,76.00
2019-04-21T21:48:04.444Z,76.40
2019-04-21T21:53:04.520Z,76.30
2019-04-21T21:58:05.832Z,77.10
2019-04-21T22:03:18.781Z,77.00
2019-04-21T22:08:16.474Z,77.50
2019-04-21T22:13:27.055Z,78.10
2019-04-21T22:18:43.294Z,78.20
2019-04-21T22:23:43.720Z,79.90
2019-04-21T22:28:40.668Z,80.10
2019-04-21T22:33:48.405Z,80.60
2019-04-21T22:39:13.392Z,81.30
2019-04-21T22:43:59.342Z,81.90
2019-04-21T22:49:08.782Z,82.50
2019-04-21T22:54:12.750Z,83.00
2019-04-21T22:59:21.051Z,83.50
2019-04-21T23:04:25.422Z,84.70
2019-04-21T23:09:31.048Z,85.40
2019-04-21T23:14:46.784Z,85.80
2019-04-21T23:20:05.729Z,85.80
2019-04-21T23:25:07.547Z,85.80
2019-04-21T23:30:19.790Z,86.60
2019-04-21T23:35:11.444Z,86.10
2019-04-21T23:40:14.841Z,86.10
2019-04-21T23:45:18.288Z,85.90
2019-04-21T23:50:34.151Z,87.40
2019-04-21T23:55:29.312Z,87.40
